Time;durP1;ratioP1;P1;durP2;ratioP2;P2;SDS_P1;SDS_P2;PMS_P1;PMS_P2;Temp;Humidity;BMP_temperature;BMP_pressure;BME280_temperature;BME280_humidity;BME280_pressure;Samples;Min_cycle;Max_cycle;Signal;HPM_P1;HPM_P2
2021/05/20 00:01:57;;;;;;;;;;;13.00;99.90;;;;;;5114151;28;19907;-72
2021/05/20 00:04:24;;;;;;;;;;;13.00;99.90;;;;;;5114397;28;19908;-69
2021/05/20 00:06:50;;;;;;;;;;;13.10;99.90;;;;;;5113901;28;19915;-71
2021/05/20 00:09:17;;;;;;;;;;;13.20;99.90;;;;;;5114189;28;19920;-71
2021/05/20 00:11:44;;;;;;;;;;;13.20;99.90;;;;;;5101308;28;19943;-69
2021/05/20 00:14:11;;;;;;;;;;;13.30;99.90;;;;;;5093234;28;19908;-67
2021/05/20 00:16:37;;;;;;;;;;;13.40;99.90;;;;;;5093702;28;19915;-70
2021/05/20 00:19:04;;;;;;;;;;;13.40;99.90;;;;;;5092914;28;20050;-69
2021/05/20 00:21:31;;;;;;;;;;;13.50;99.90;;;;;;5091730;28;19935;-68
2021/05/20 00:23:57;;;;;;;;;;;13.50;99.90;;;;;;5093167;28;19916;-71
2021/05/20 00:26:24;;;;;;;;;;;13.50;99.90;;;;;;5093622;28;20006;-72
2021/05/20 00:28:51;;;;;;;;;;;13.50;99.90;;;;;;5093343;28;20374;-71
2021/05/20 00:31:18;;;;;;;;;;;13.60;99.90;;;;;;5093680;28;19920;-70
2021/05/20 00:33:44;;;;;;;;;;;13.70;99.90;;;;;;5093389;28;19908;-68
2021/05/20 00:36:11;;;;;;;;;;;13.70;99.90;;;;;;5093345;28;19908;-71
2021/05/20 00:38:38;;;;;;;;;;;13.70;99.90;;;;;;5092923;28;19992;-70
2021/05/20 00:41:05;;;;;;;;;;;13.80;99.90;;;;;;5093042;28;19943;-69
2021/05/20 00:43:32;;;;;;;;;;;13.80;99.90;;;;;;5087849;28;19966;-70
2021/05/20 00:46:02;;;;;;;;;;;13.80;99.90;;;;;;5089759;28;20296;-69
2021/05/20 00:48:28;;;;;;;;;;;13.90;99.90;;;;;;5081208;28;19916;-70
2021/05/20 00:50:55;;;;;;;;;;;14.00;99.90;;;;;;5092926;28;19909;-68
2021/05/20 00:53:22;;;;;;;;;;;14.00;99.70;;;;;;5091865;28;19908;-68
2021/05/20 00:55:52;;;;;;;;;;;14.20;99.80;;;;;;5093040;28;19912;-70
2021/05/20 00:58:19;;;;;;;;;;;14.40;99.10;;;;;;5092470;28;19908;-70
2021/05/20 01:00:46;;;;;;;;;;;14.60;99.00;;;;;;5092894;28;19908;-69
2021/05/20 01:03:13;;;;;;;;;;;14.80;98.80;;;;;;5093014;28;19908;-71
2021/05/20 01:05:39;;;;;;;;;;;15.20;98.20;;;;;;5093023;28;19999;-71
2021/05/20 01:08:06;;;;;;;;;;;15.40;97.40;;;;;;5092933;28;19913;-71
2021/05/20 01:10:32;;;;;;;;;;;15.70;98.00;;;;;;5092875;28;20363;-71
2021/05/20 01:12:59;;;;;;;;;;;15.80;96.70;;;;;;5092758;28;19912;-69
2021/05/20 01:15:29;;;;;;;;;;;16.00;96.60;;;;;;5092913;28;20011;-71
2021/05/20 01:18:03;;;;;;;;;;;16.20;96.30;;;;;;5093023;28;19908;-70
2021/05/20 01:20:31;;;;;;;;;;;16.60;95.00;;;;;;5093063;28;19908;-70
2021/05/20 01:23:11;;;;;;;;;;;16.60;95.20;;;;;;5092737;28;20320;-70
2021/05/20 01:25:39;;;;;;;;;;;16.70;94.70;;;;;;5093144;28;19919;-71
2021/05/20 01:28:07;;;;;;;;;;;16.60;93.50;;;;;;5092811;28;19916;-71
2021/05/20 01:30:35;;;;;;;;;;;16.40;94.00;;;;;;5091353;28;19916;-68
2021/05/20 01:33:02;;;;;;;;;;;16.30;94.00;;;;;;5092647;28;19962;-70
2021/05/20 01:35:28;;;;;;;;;;;16.30;94.10;;;;;;5092840;28;20346;-71
2021/05/20 01:38:41;;;;;;;;;;;16.40;93.90;;;;;;5092386;28;20318;-69
2021/05/20 01:41:00;;;;;;;;;;;16.50;93.50;;;;;;5092463;28;20417;-68
2021/05/20 01:43:27;;;;;;;;;;;16.50;93.00;;;;;;5092551;28;20023;-69
2021/05/20 01:46:00;;;;;;;;;;;16.60;93.20;;;;;;5092720;28;19920;-68
2021/05/20 01:48:31;;;;;;;;;;;16.60;93.50;;;;;;5092687;28;19961;-70
2021/05/20 01:51:02;;;;;;;;;;;16.70;93.80;;;;;;5092486;28;20011;-72
2021/05/20 01:53:29;;;;;;;;;;;16.60;93.90;;;;;;5092437;28;19947;-71
2021/05/20 01:55:56;;;;;;;;;;;16.60;93.90;;;;;;5092737;28;19908;-71
2021/05/20 01:58:22;;;;;;;;;;;16.50;94.30;;;;;;5085268;28;19908;-70
2021/05/20 02:00:49;;;;;;;;;;;16.50;93.40;;;;;;5072513;28;20275;-72
2021/05/20 02:03:17;;;;;;;;;;;16.50;93.30;;;;;;5071751;28;19920;-72
2021/05/20 02:05:44;;;;;;;;;;;16.50;92.90;;;;;;5071679;28;19909;-72
2021/05/20 02:08:11;;;;;;;;;;;16.50;92.80;;;;;;5102439;28;19923;-71
2021/05/20 02:10:37;;;;;;;;;;;16.50;93.00;;;;;;5116087;28;20037;-71
2021/05/20 02:13:04;;;;;;;;;;;16.40;93.10;;;;;;5116329;28;20247;-71
2021/05/20 02:15:31;;;;;;;;;;;16.30;93.00;;;;;;5116387;28;19915;-72
2021/05/20 02:17:58;;;;;;;;;;;16.40;93.20;;;;;;5116604;28;20126;-72
2021/05/20 02:20:25;;;;;;;;;;;16.40;93.70;;;;;;5116446;28;19977;-69
2021/05/20 02:22:52;;;;;;;;;;;16.40;93.00;;;;;;5116142;28;20035;-72
2021/05/20 02:25:19;;;;;;;;;;;16.30;93.00;;;;;;5116198;28;20315;-72
2021/05/20 02:27:46;;;;;;;;;;;16.40;93.50;;;;;;5115901;28;19908;-71
2021/05/20 02:30:13;;;;;;;;;;;16.30;93.80;;;;;;5115877;28;20358;-72
2021/05/20 02:32:40;;;;;;;;;;;16.30;93.50;;;;;;5116218;28;20002;-70
2021/05/20 02:35:07;;;;;;;;;;;16.40;93.50;;;;;;5115725;28;19908;-71
2021/05/20 02:37:34;;;;;;;;;;;16.30;94.00;;;;;;5115714;28;19961;-72
2021/05/20 02:40:01;;;;;;;;;;;16.40;93.80;;;;;;5114588;28;19907;-71
2021/05/20 02:42:28;;;;;;;;;;;16.40;93.80;;;;;;5115764;28;19940;-71
2021/05/20 02:44:54;;;;;;;;;;;16.40;93.60;;;;;;5105249;28;20007;-70
2021/05/20 02:47:21;;;;;;;;;;;16.50;93.70;;;;;;5095251;28;19916;-71
2021/05/20 02:49:48;;;;;;;;;;;16.60;93.80;;;;;;5095146;28;19938;-72
2021/05/20 02:52:14;;;;;;;;;;;16.60;93.60;;;;;;5094401;28;19908;-72
2021/05/20 02:54:41;;;;;;;;;;;16.80;92.90;;;;;;5094758;28;19915;-73
2021/05/20 02:57:11;;;;;;;;;;;16.90;92.20;;;;;;5095627;28;19951;-69
2021/05/20 02:59:38;;;;;;;;;;;16.90;92.80;;;;;;5095271;28;19994;-71
2021/05/20 03:02:06;;;;;;;;;;;17.00;92.00;;;;;;5095500;28;19908;-71
2021/05/20 03:04:33;;;;;;;;;;;17.10;91.90;;;;;;5095098;28;20446;-71
2021/05/20 03:07:00;;;;;;;;;;;17.00;92.30;;;;;;5093585;28;19908;-72
2021/05/20 03:09:27;;;;;;;;;;;17.00;93.50;;;;;;5094983;28;19929;-72
2021/05/20 03:11:56;;;;;;;;;;;17.00;92.80;;;;;;5095022;28;19916;-73
2021/05/20 03:14:23;;;;;;;;;;;17.00;92.80;;;;;;5095020;28;20002;-73
2021/05/20 03:16:49;;;;;;;;;;;17.10;92.50;;;;;;5093477;28;19908;-71
2021/05/20 03:19:16;;;;;;;;;;;17.10;92.70;;;;;;5094873;28;20313;-71
2021/05/20 03:21:46;;;;;;;;;;;17.20;92.60;;;;;;5094124;28;19908;-70
2021/05/20 03:24:16;;;;;;;;;;;17.10;93.30;;;;;;5093428;28;20007;-69
2021/05/20 03:26:43;;;;;;;;;;;17.10;93.10;;;;;;5093078;28;19908;-69
2021/05/20 03:29:10;;;;;;;;;;;17.10;93.20;;;;;;5094494;28;19917;-71
2021/05/20 03:31:37;;;;;;;;;;;17.10;93.50;;;;;;5094526;28;20282;-70
2021/05/20 03:34:03;;;;;;;;;;;17.00;93.30;;;;;;5093283;28;20351;-70
2021/05/20 03:36:30;;;;;;;;;;;17.10;93.10;;;;;;5094133;28;20030;-71
2021/05/20 03:38:57;;;;;;;;;;;17.20;93.00;;;;;;5092867;28;19987;-71
2021/05/20 03:41:23;;;;;;;;;;;17.40;92.50;;;;;;5094384;28;20270;-71
2021/05/20 03:43:50;;;;;;;;;;;17.40;92.20;;;;;;5094226;28;20370;-71
2021/05/20 03:46:17;;;;;;;;;;;17.40;92.40;;;;;;5094306;28;19909;-69
2021/05/20 03:48:44;;;;;;;;;;;17.60;91.70;;;;;;5094526;28;19919;-70
2021/05/20 03:51:11;;;;;;;;;;;17.80;91.90;;;;;;5093231;28;20418;-70
2021/05/20 03:53:37;;;;;;;;;;;17.80;91.10;;;;;;5094314;28;19948;-71
2021/05/20 03:56:04;;;;;;;;;;;17.80;90.40;;;;;;5094075;28;20354;-70
2021/05/20 03:58:31;;;;;;;;;;;17.90;90.00;;;;;;5094073;28;19908;-70
2021/05/20 04:00:58;;;;;;;;;;;18.20;87.90;;;;;;5093842;28;19912;-70
2021/05/20 04:03:28;;;;;;;;;;;18.40;81.00;;;;;;5094005;28;19909;-71
2021/05/20 04:06:02;;;;;;;;;;;18.60;73.60;;;;;;5093872;28;19915;-69
2021/05/20 04:08:29;;;;;;;;;;;18.90;70.50;;;;;;5093743;28;19919;-71
2021/05/20 04:10:56;;;;;;;;;;;19.00;69.60;;;;;;5093518;28;20390;-71
2021/05/20 04:13:36;;;;;;;;;;;19.10;69.70;;;;;;5093978;28;20343;-71
2021/05/20 04:16:03;;;;;;;;;;;19.00;77.10;;;;;;5093789;28;20251;-69
2021/05/20 04:18:30;;;;;;;;;;;18.80;79.10;;;;;;5093635;28;19943;-70
2021/05/20 04:20:57;;;;;;;;;;;18.70;80.10;;;;;;5093210;28;19919;-71
2021/05/20 04:23:24;;;;;;;;;;;18.60;79.80;;;;;;5092309;28;19908;-71
2021/05/20 04:25:51;;;;;;;;;;;18.60;79.30;;;;;;5093341;28;20358;-70
2021/05/20 04:28:18;;;;;;;;;;;18.50;78.90;;;;;;5093220;28;20420;-70
2021/05/20 04:30:45;;;;;;;;;;;18.50;79.00;;;;;;5091862;28;19912;-69
2021/05/20 04:33:12;;;;;;;;;;;18.50;80.40;;;;;;5086325;28;20003;-71
2021/05/20 04:35:39;;;;;;;;;;;18.30;81.50;;;;;;5087553;28;20274;-71
2021/05/20 04:38:06;;;;;;;;;;;18.20;82.30;;;;;;5092885;28;19916;-69
2021/05/20 04:40:34;;;;;;;;;;;18.10;83.10;;;;;;5091394;28;19922;-70
2021/05/20 04:43:01;;;;;;;;;;;18.00;84.80;;;;;;5092359;28;19916;-69
2021/05/20 04:45:27;;;;;;;;;;;18.00;85.80;;;;;;5093018;28;20267;-70
2021/05/20 04:47:54;;;;;;;;;;;18.00;85.60;;;;;;5092960;28;20350;-70
2021/05/20 04:50:21;;;;;;;;;;;18.10;84.50;;;;;;5092959;28;20464;-70
2021/05/20 04:52:48;;;;;;;;;;;18.10;84.80;;;;;;5092722;28;19953;-68
2021/05/20 04:55:15;;;;;;;;;;;18.00;84.80;;;;;;5091770;28;20416;-70
2021/05/20 04:57:42;;;;;;;;;;;18.10;83.60;;;;;;5092689;28;19908;-71
2021/05/20 05:00:11;;;;;;;;;;;18.10;83.00;;;;;;5092611;28;20003;-72
2021/05/20 05:02:38;;;;;;;;;;;18.10;84.30;;;;;;5092871;28;19908;-69
2021/05/20 05:05:05;;;;;;;;;;;18.10;83.80;;;;;;5092612;28;19929;-71
2021/05/20 05:07:32;;;;;;;;;;;18.10;83.60;;;;;;5092886;28;20347;-71
2021/05/20 05:09:59;;;;;;;;;;;18.00;82.30;;;;;;5092892;28;19935;-69
2021/05/20 05:12:26;;;;;;;;;;;18.00;82.00;;;;;;5092803;28;20007;-71
2021/05/20 05:14:53;;;;;;;;;;;17.90;83.10;;;;;;5092599;28;19908;-69
2021/05/20 05:17:20;;;;;;;;;;;17.80;83.70;;;;;;5092785;28;20037;-69
2021/05/20 05:19:46;;;;;;;;;;;17.80;84.80;;;;;;5092666;28;19909;-71
2021/05/20 05:22:13;;;;;;;;;;;17.70;85.60;;;;;;5092364;28;19931;-70
2021/05/20 05:24:41;;;;;;;;;;;17.60;86.00;;;;;;5092403;28;19908;-70
2021/05/20 05:27:08;;;;;;;;;;;17.60;86.20;;;;;;5092469;28;20022;-71
2021/05/20 05:29:34;;;;;;;;;;;17.60;87.70;;;;;;5092405;28;19916;-69
2021/05/20 05:32:02;;;;;;;;;;;17.70;88.10;;;;;;5092700;28;19931;-70
2021/05/20 05:34:29;;;;;;;;;;;17.60;88.30;;;;;;5090859;28;19916;-67
2021/05/20 05:36:56;;;;;;;;;;;17.50;88.00;;;;;;5092220;28;19908;-69
2021/05/20 05:39:22;;;;;;;;;;;17.50;86.70;;;;;;5092459;28;19920;-73
2021/05/20 05:41:49;;;;;;;;;;;17.60;86.80;;;;;;5091264;28;20483;-71
2021/05/20 05:44:16;;;;;;;;;;;17.70;86.70;;;;;;5093521;28;20366;-71
2021/05/20 05:46:43;;;;;;;;;;;17.70;87.10;;;;;;5095188;28;19962;-70
2021/05/20 05:49:13;;;;;;;;;;;17.70;88.20;;;;;;5097042;28;19959;-71
2021/05/20 05:51:42;;;;;;;;;;;17.60;88.50;;;;;;5096394;28;19922;-71
2021/05/20 05:54:09;;;;;;;;;;;17.60;88.60;;;;;;5096416;28;19912;-71
2021/05/20 05:56:35;;;;;;;;;;;17.60;88.20;;;;;;5096421;28;19908;-71
2021/05/20 05:59:02;;;;;;;;;;;17.50;88.80;;;;;;5094949;28;19991;-70
2021/05/20 06:01:29;;;;;;;;;;;17.40;89.60;;;;;;5096508;28;19948;-69
2021/05/20 06:03:57;;;;;;;;;;;17.40;89.20;;;;;;5096485;28;19908;-69
2021/05/20 06:06:24;;;;;;;;;;;17.40;88.40;;;;;;5096067;28;19909;-70
2021/05/20 06:08:50;;;;;;;;;;;17.40;87.30;;;;;;5096177;28;20061;-68
2021/05/20 06:11:17;;;;;;;;;;;17.40;88.10;;;;;;5096371;28;20053;-71
2021/05/20 06:13:44;;;;;;;;;;;17.40;87.20;;;;;;5096255;28;19908;-69
2021/05/20 06:16:10;;;;;;;;;;;17.40;86.60;;;;;;5101917;28;19919;-69
2021/05/20 06:18:39;;;;;;;;;;;17.40;87.20;;;;;;5095875;28;20366;-70
2021/05/20 06:21:06;;;;;;;;;;;17.30;86.80;;;;;;5106092;28;19909;-69
2021/05/20 06:23:33;;;;;;;;;;;17.40;85.50;;;;;;5111278;28;20355;-69
2021/05/20 06:26:00;;;;;;;;;;;17.30;85.90;;;;;;5110505;28;19962;-67
2021/05/20 06:28:27;;;;;;;;;;;17.30;86.90;;;;;;5109628;28;19908;-68
2021/05/20 06:30:53;;;;;;;;;;;17.20;86.90;;;;;;5107577;28;19929;-71
2021/05/20 06:33:20;;;;;;;;;;;17.20;86.80;;;;;;5103707;28;19930;-70
2021/05/20 06:35:47;;;;;;;;;;;17.10;85.70;;;;;;5106231;28;19915;-69
2021/05/20 06:38:17;;;;;;;;;;;17.10;84.70;;;;;;5107027;28;20027;-68
2021/05/20 06:40:43;;;;;;;;;;;17.10;85.70;;;;;;5106230;28;19915;-69
2021/05/20 06:43:10;;;;;;;;;;;17.10;85.80;;;;;;5109846;28;19963;-69
2021/05/20 06:45:36;;;;;;;;;;;17.00;86.40;;;;;;5102198;28;19908;-71
2021/05/20 06:48:04;;;;;;;;;;;17.00;86.40;;;;;;5093683;28;20027;-68
2021/05/20 06:50:30;;;;;;;;;;;17.00;87.00;;;;;;5096403;28;19916;-71
2021/05/20 06:52:58;;;;;;;;;;;16.90;88.20;;;;;;5097123;28;20251;-70
2021/05/20 06:55:25;;;;;;;;;;;16.90;87.70;;;;;;5094867;28;20362;-70
2021/05/20 07:00:31;;;;;;;;;;;16.70;88.40;;;;;;5095416;28;19908;-73
2021/05/20 07:02:58;;;;;;;;;;;16.60;86.70;;;;;;5094449;28;19908;-71
2021/05/20 07:05:24;;;;;;;;;;;16.60;85.60;;;;;;5094856;28;20084;-70
2021/05/20 07:07:51;;;;;;;;;;;16.60;87.00;;;;;;5093653;28;19953;-68
2021/05/20 07:10:18;;;;;;;;;;;16.60;87.60;;;;;;5094955;28;19928;-70
2021/05/20 07:12:45;;;;;;;;;;;16.50;88.80;;;;;;5093313;28;19908;-69
2021/05/20 07:15:12;;;;;;;;;;;16.50;86.50;;;;;;5094754;28;19908;-71
2021/05/20 07:17:38;;;;;;;;;;;16.40;84.40;;;;;;5094152;28;19912;-71
2021/05/20 07:20:06;;;;;;;;;;;16.50;84.60;;;;;;5093247;28;19984;-68
2021/05/20 07:22:33;;;;;;;;;;;16.50;82.80;;;;;;5094578;28;19908;-72
2021/05/20 07:25:04;;;;;;;;;;;16.60;80.90;;;;;;5094068;28;19908;-72
2021/05/20 07:27:32;;;;;;;;;;;16.70;80.80;;;;;;5094695;28;19959;-71
2021/05/20 07:29:59;;;;;;;;;;;16.70;79.70;;;;;;5094137;28;19927;-69
2021/05/20 07:32:26;;;;;;;;;;;16.70;81.00;;;;;;5094103;28;19918;-71
2021/05/20 07:34:53;;;;;;;;;;;16.70;81.90;;;;;;5093797;28;19914;-69
2021/05/20 07:37:20;;;;;;;;;;;16.60;82.80;;;;;;5094138;28;19908;-68
2021/05/20 07:39:47;;;;;;;;;;;16.50;82.80;;;;;;5093268;28;19912;-70
2021/05/20 07:42:14;;;;;;;;;;;16.50;81.90;;;;;;5091880;28;19948;-71
2021/05/20 07:44:41;;;;;;;;;;;16.50;81.70;;;;;;5090728;28;19920;-70
2021/05/20 07:47:07;;;;;;;;;;;16.50;82.00;;;;;;5091494;28;19912;-71
2021/05/20 07:49:37;;;;;;;;;;;16.40;81.90;;;;;;5091674;28;19916;-71
2021/05/20 07:52:04;;;;;;;;;;;16.40;81.50;;;;;;5092018;28;19908;-71
2021/05/20 07:54:32;;;;;;;;;;;16.40;81.70;;;;;;5091434;28;20011;-70
2021/05/20 07:56:59;;;;;;;;;;;16.40;82.10;;;;;;5091465;28;19920;-69
2021/05/20 07:59:26;;;;;;;;;;;16.40;82.30;;;;;;5091736;28;19981;-69
2021/05/20 08:02:03;;;;;;;;;;;16.30;84.10;;;;;;5090836;28;20477;-69
2021/05/20 08:04:31;;;;;;;;;;;16.20;84.80;;;;;;5091551;28;20006;-69
2021/05/20 08:09:49;;;;;;;;;;;16.10;84.00;;;;;;5091752;28;19973;-70
2021/05/20 08:12:16;;;;;;;;;;;16.10;84.00;;;;;;5091553;28;19912;-68
2021/05/20 08:14:42;;;;;;;;;;;16.10;83.80;;;;;;5091335;28;19912;-69
2021/05/20 08:17:09;;;;;;;;;;;16.20;84.30;;;;;;5091006;28;19923;-69
2021/05/20 08:19:36;;;;;;;;;;;16.20;83.70;;;;;;5090918;28;20037;-70
2021/05/20 08:22:02;;;;;;;;;;;16.20;83.90;;;;;;5091536;28;19919;-70
2021/05/20 08:24:29;;;;;;;;;;;16.20;84.00;;;;;;5091416;28;19919;-69
2021/05/20 08:26:56;;;;;;;;;;;16.20;84.00;;;;;;5090996;28;19908;-71
2021/05/20 08:29:22;;;;;;;;;;;16.20;84.90;;;;;;5091208;28;20422;-72
2021/05/20 08:31:49;;;;;;;;;;;16.10;85.90;;;;;;5123532;27;20569;-69
2021/05/20 08:34:16;;;;;;;;;;;16.10;84.80;;;;;;5090889;28;19923;-73
2021/05/20 08:36:42;;;;;;;;;;;16.10;84.80;;;;;;5091080;28;19916;-69
2021/05/20 08:39:09;;;;;;;;;;;16.10;85.50;;;;;;5091181;28;19998;-71
2021/05/20 08:41:36;;;;;;;;;;;16.10;85.40;;;;;;5091035;28;19908;-70
2021/05/20 08:44:13;;;;;;;;;;;16.10;86.20;;;;;;5090950;28;20302;-71
2021/05/20 08:46:40;;;;;;;;;;;16.00;86.30;;;;;;5090221;28;19912;-71
2021/05/20 08:49:19;;;;;;;;;;;16.00;86.20;;;;;;5090656;28;19915;-71
2021/05/20 08:51:47;;;;;;;;;;;16.00;87.40;;;;;;5090833;28;19912;-70
2021/05/20 08:54:14;;;;;;;;;;;16.00;86.40;;;;;;5090758;28;20347;-71
2021/05/20 08:56:45;;;;;;;;;;;16.00;86.40;;;;;;5091124;28;19908;-70
2021/05/20 08:59:12;;;;;;;;;;;16.00;86.30;;;;;;5090802;28;19920;-69
2021/05/20 09:01:40;;;;;;;;;;;16.00;87.50;;;;;;5089075;28;19938;-71
2021/05/20 09:04:07;;;;;;;;;;;16.00;86.70;;;;;;5090721;28;20413;-69
2021/05/20 09:06:35;;;;;;;;;;;16.00;87.10;;;;;;5092431;28;20382;-69
2021/05/20 09:09:22;;;;;;;;;;;16.10;87.60;;;;;;5093106;28;19920;-68
2021/05/20 09:11:48;;;;;;;;;;;16.10;88.10;;;;;;5093299;28;19912;-69
2021/05/20 09:14:35;;;;;;;;;;;16.00;88.80;;;;;;5092968;28;19908;-71
2021/05/20 09:17:14;;;;;;;;;;;16.00;88.60;;;;;;5092339;28;19908;-69
2021/05/20 09:19:43;;;;;;;;;;;15.90;89.00;;;;;;5094825;28;19909;-72
2021/05/20 09:22:10;;;;;;;;;;;15.90;89.50;;;;;;5095175;28;20327;-71
2021/05/20 09:24:48;;;;;;;;;;;15.80;89.90;;;;;;5097156;28;20301;-71
2021/05/20 09:27:24;;;;;;;;;;;15.90;89.90;;;;;;5096989;28;19908;-70
2021/05/20 09:30:08;;;;;;;;;;;15.80;89.50;;;;;;5096953;28;19916;-70
2021/05/20 09:32:56;;;;;;;;;;;15.80;89.90;;;;;;5095691;28;20324;-71
2021/05/20 09:35:26;;;;;;;;;;;15.80;90.20;;;;;;5096889;28;19919;-68
2021/05/20 09:37:59;;;;;;;;;;;15.80;90.00;;;;;;5096707;28;19984;-69
2021/05/20 09:40:27;;;;;;;;;;;15.80;90.20;;;;;;5097021;28;19908;-70
2021/05/20 09:42:54;;;;;;;;;;;15.70;90.10;;;;;;5096758;28;19999;-71
2021/05/20 09:45:24;;;;;;;;;;;15.80;89.40;;;;;;5096965;28;20283;-68
2021/05/20 09:47:51;;;;;;;;;;;15.70;90.50;;;;;;5098278;28;19915;-70
2021/05/20 09:50:22;;;;;;;;;;;15.70;89.00;;;;;;5098467;28;19916;-68
2021/05/20 09:52:49;;;;;;;;;;;15.80;89.10;;;;;;5098612;28;19912;-68
2021/05/20 09:55:20;;;;;;;;;;;15.80;90.10;;;;;;5099019;28;19908;-71
2021/05/20 09:57:47;;;;;;;;;;;15.80;89.50;;;;;;5098281;28;20019;-71
2021/05/20 10:00:19;;;;;;;;;;;15.70;89.60;;;;;;5096456;28;19953;-70
2021/05/20 10:02:46;;;;;;;;;;;15.70;90.10;;;;;;5098754;28;19915;-71
2021/05/20 10:05:19;;;;;;;;;;;15.70;90.30;;;;;;5098164;28;19908;-70
2021/05/20 10:07:46;;;;;;;;;;;15.60;91.30;;;;;;5099984;28;19908;-70
2021/05/20 10:10:14;;;;;;;;;;;15.50;90.50;;;;;;5100513;28;19916;-71
2021/05/20 10:12:43;;;;;;;;;;;15.40;90.60;;;;;;5101019;28;19991;-70
2021/05/20 10:15:14;;;;;;;;;;;15.50;90.80;;;;;;5098419;28;19908;-70
2021/05/20 10:17:41;;;;;;;;;;;15.50;90.40;;;;;;5095624;28;19957;-69
2021/05/20 10:20:08;;;;;;;;;;;15.50;90.40;;;;;;5095957;28;19977;-71
2021/05/20 10:22:35;;;;;;;;;;;15.50;90.50;;;;;;5095321;28;19912;-72
2021/05/20 10:25:03;;;;;;;;;;;15.50;90.90;;;;;;5093746;28;19977;-71
2021/05/20 10:27:31;;;;;;;;;;;15.40;90.70;;;;;;5092467;28;20364;-70
2021/05/20 10:30:01;;;;;;;;;;;15.40;91.40;;;;;;5092736;28;19916;-69
2021/05/20 10:32:28;;;;;;;;;;;15.40;91.50;;;;;;5092916;28;19908;-72
2021/05/20 10:35:08;;;;;;;;;;;15.30;92.30;;;;;;5093507;28;19991;-72
2021/05/20 10:37:40;;;;;;;;;;;15.20;92.30;;;;;;5093797;28;20290;-71
2021/05/20 10:40:08;;;;;;;;;;;15.20;92.90;;;;;;5095554;28;19999;-70
2021/05/20 10:42:39;;;;;;;;;;;15.20;92.50;;;;;;5095465;28;19922;-71
2021/05/20 10:45:16;;;;;;;;;;;15.10;93.40;;;;;;5095166;28;20502;-73
2021/05/20 10:48:00;;;;;;;;;;;15.10;92.60;;;;;;5095584;28;19915;-70
2021/05/20 10:50:47;;;;;;;;;;;15.00;93.10;;;;;;5095337;28;20011;-71
2021/05/20 10:53:33;;;;;;;;;;;15.10;92.20;;;;;;5087905;28;19908;-71
2021/05/20 10:56:00;;;;;;;;;;;15.10;91.80;;;;;;5095404;28;19958;-70
2021/05/20 10:58:30;;;;;;;;;;;15.20;92.00;;;;;;5095340;28;19915;-68
2021/05/20 11:00:57;;;;;;;;;;;15.30;91.10;;;;;;5095323;28;20059;-69
2021/05/20 11:03:42;;;;;;;;;;;15.40;90.80;;;;;;5095189;28;19908;-70
2021/05/20 11:06:08;;;;;;;;;;;15.50;90.90;;;;;;5095341;28;19993;-70
2021/05/20 11:08:35;;;;;;;;;;;15.60;91.20;;;;;;5095192;28;19994;-70
2021/05/20 11:11:02;;;;;;;;;;;15.70;91.20;;;;;;5095034;28;19995;-70
2021/05/20 11:13:38;;;;;;;;;;;15.70;91.20;;;;;;5095051;28;19912;-70
2021/05/20 11:16:14;;;;;;;;;;;15.60;91.30;;;;;;5094998;28;19953;-71
2021/05/20 11:18:40;;;;;;;;;;;15.50;91.60;;;;;;5094734;28;19908;-70
2021/05/20 11:21:07;;;;;;;;;;;15.40;91.70;;;;;;5093426;28;19908;-71
2021/05/20 11:23:35;;;;;;;;;;;15.40;91.80;;;;;;5094979;28;20436;-70
2021/05/20 11:26:02;;;;;;;;;;;15.30;92.00;;;;;;5094832;28;20260;-68
2021/05/20 11:28:29;;;;;;;;;;;15.30;92.00;;;;;;5094905;28;20354;-68
2021/05/20 11:30:57;;;;;;;;;;;15.20;92.10;;;;;;5092807;28;20042;-72
2021/05/20 11:33:25;;;;;;;;;;;15.20;92.30;;;;;;5094491;28;19908;-72
2021/05/20 11:38:28;;;;;;;;;;;15.20;92.00;;;;;;5094656;28;19909;-68
2021/05/20 11:40:55;;;;;;;;;;;15.10;91.40;;;;;;5094340;28;19914;-69
2021/05/20 11:43:28;;;;;;;;;;;15.10;91.50;;;;;;5093902;28;19924;-67
2021/05/20 11:45:55;;;;;;;;;;;15.10;91.40;;;;;;5094445;28;19908;-69
2021/05/20 11:48:22;;;;;;;;;;;15.10;91.30;;;;;;5094111;28;20316;-69
2021/05/20 11:50:53;;;;;;;;;;;15.00;91.40;;;;;;5094111;28;20388;-71
2021/05/20 11:53:20;;;;;;;;;;;15.00;91.10;;;;;;5094162;28;20278;-70
2021/05/20 11:55:47;;;;;;;;;;;14.90;91.50;;;;;;5094418;28;19908;-69
2021/05/20 11:58:14;;;;;;;;;;;14.80;91.60;;;;;;5094282;28;19908;-70
2021/05/20 12:00:40;;;;;;;;;;;14.70;91.90;;;;;;5094018;28;20347;-69
2021/05/20 12:03:09;;;;;;;;;;;14.60;91.30;;;;;;5093909;28;20011;-72
2021/05/20 12:05:36;;;;;;;;;;;14.60;91.30;;;;;;5093923;28;19908;-71
2021/05/20 12:08:03;;;;;;;;;;;14.60;91.50;;;;;;5093881;28;19908;-71
2021/05/20 12:10:31;;;;;;;;;;;14.50;91.40;;;;;;5090291;28;20350;-70
2021/05/20 12:13:07;;;;;;;;;;;14.50;91.30;;;;;;5092970;28;19908;-70
2021/05/20 12:15:33;;;;;;;;;;;14.40;91.40;;;;;;5093895;28;19908;-70
2021/05/20 12:18:01;;;;;;;;;;;14.50;91.30;;;;;;5092241;28;19988;-71
2021/05/20 12:20:28;;;;;;;;;;;14.50;91.10;;;;;;5093828;28;19933;-69
2021/05/20 12:22:55;;;;;;;;;;;14.40;90.90;;;;;;5093585;28;19912;-69
2021/05/20 12:25:23;;;;;;;;;;;14.50;90.90;;;;;;5093850;28;20252;-71
2021/05/20 12:27:51;;;;;;;;;;;14.40;90.90;;;;;;5093055;28;19924;-72
2021/05/20 12:30:29;;;;;;;;;;;14.40;91.90;;;;;;5093982;28;19919;-72
2021/05/20 12:33:07;;;;;;;;;;;14.40;90.90;;;;;;5093800;28;19908;-72
2021/05/20 12:35:41;;;;;;;;;;;14.40;90.60;;;;;;5095548;28;19908;-69
2021/05/20 12:38:15;;;;;;;;;;;14.30;90.50;;;;;;5094632;28;19977;-72
2021/05/20 12:40:41;;;;;;;;;;;14.30;90.50;;;;;;5095430;28;19915;-72
2021/05/20 12:43:10;;;;;;;;;;;14.30;90.70;;;;;;5094726;28;19915;-70
2021/05/20 12:45:48;;;;;;;;;;;14.30;90.50;;;;;;5093715;28;19939;-71
2021/05/20 12:48:30;;;;;;;;;;;14.30;90.30;;;;;;5093608;28;19908;-70
2021/05/20 12:51:04;;;;;;;;;;;14.20;90.40;;;;;;5092999;28;19923;-69
2021/05/20 12:53:38;;;;;;;;;;;14.20;90.50;;;;;;5091348;28;20309;-70
2021/05/20 12:56:24;;;;;;;;;;;14.20;90.40;;;;;;5092833;28;19915;-68
2021/05/20 12:58:56;;;;;;;;;;;14.20;90.50;;;;;;5092951;28;19951;-68
2021/05/20 13:01:24;;;;;;;;;;;14.20;90.20;;;;;;5093220;28;19920;-71
2021/05/20 13:03:52;;;;;;;;;;;14.20;89.90;;;;;;5092913;28;19986;-70
2021/05/20 13:06:22;;;;;;;;;;;14.20;90.00;;;;;;5093034;28;19918;-68
2021/05/20 13:08:49;;;;;;;;;;;14.20;90.30;;;;;;5092681;28;19912;-70
2021/05/20 13:11:23;;;;;;;;;;;14.20;90.00;;;;;;5092531;28;19940;-72
2021/05/20 13:13:54;;;;;;;;;;;14.20;89.70;;;;;;5092886;28;19908;-68
2021/05/20 13:24:48;;;;;;;;;;;14.20;90.20;;;;;;5090276;28;19995;-69
2021/05/20 13:27:17;;;;;;;;;;;14.10;90.20;;;;;;5072769;28;20367;-71
2021/05/20 13:29:50;;;;;;;;;;;14.10;90.30;;;;;;5072640;28;19917;-70
2021/05/20 13:32:22;;;;;;;;;;;14.00;90.30;;;;;;5072462;28;20355;-69
2021/05/20 13:34:48;;;;;;;;;;;14.00;90.50;;;;;;5072479;28;19912;-70
2021/05/20 13:37:15;;;;;;;;;;;14.00;90.40;;;;;;5072610;28;20397;-71
2021/05/20 13:39:43;;;;;;;;;;;14.00;90.40;;;;;;5072745;28;19969;-71
2021/05/20 13:42:10;;;;;;;;;;;13.90;90.40;;;;;;5072504;28;19955;-71
2021/05/20 13:44:45;;;;;;;;;;;13.90;90.30;;;;;;5072279;28;19982;-69
2021/05/20 13:47:12;;;;;;;;;;;14.00;90.50;;;;;;5073179;28;19909;-71
2021/05/20 13:49:46;;;;;;;;;;;13.90;90.30;;;;;;5073304;28;20286;-71
2021/05/20 13:52:16;;;;;;;;;;;13.90;90.20;;;;;;5073941;28;19908;-68
2021/05/20 13:54:43;;;;;;;;;;;13.90;90.20;;;;;;5074063;28;19944;-69
2021/05/20 13:57:11;;;;;;;;;;;13.90;90.30;;;;;;5075495;28;19908;-68
2021/05/20 13:59:39;;;;;;;;;;;13.90;90.20;;;;;;5076486;28;19920;-70
2021/05/20 14:02:08;;;;;;;;;;;13.80;90.40;;;;;;5076569;28;19908;-68
2021/05/20 14:04:38;;;;;;;;;;;13.80;90.40;;;;;;5081480;28;19908;-68
2021/05/20 14:07:06;;;;;;;;;;;13.80;90.50;;;;;;5090788;28;19936;-67
2021/05/20 14:09:33;;;;;;;;;;;13.70;90.80;;;;;;5092268;28;19917;-68
2021/05/20 14:12:00;;;;;;;;;;;13.70;90.80;;;;;;5091180;28;19909;-68
2021/05/20 14:14:28;;;;;;;;;;;13.70;91.10;;;;;;5092041;28;19958;-68
2021/05/20 14:16:55;;;;;;;;;;;13.70;90.90;;;;;;5076897;28;19961;-68
2021/05/20 14:19:22;;;;;;;;;;;13.70;91.00;;;;;;5075789;28;19954;-69
2021/05/20 14:21:49;;;;;;;;;;;13.70;91.10;;;;;;5075848;28;20259;-69
2021/05/20 14:24:16;;;;;;;;;;;13.70;91.20;;;;;;5075694;28;19916;-68
2021/05/20 14:26:43;;;;;;;;;;;13.80;91.40;;;;;;5075875;28;19908;-68
2021/05/20 14:29:10;;;;;;;;;;;13.70;91.40;;;;;;5075609;28;19952;-68
2021/05/20 14:31:37;;;;;;;;;;;13.70;91.40;;;;;;5075742;28;19995;-69
2021/05/20 14:34:04;;;;;;;;;;;13.70;91.40;;;;;;5090901;28;20347;-67
2021/05/20 14:36:30;;;;;;;;;;;13.70;91.40;;;;;;5075643;28;19909;-67
2021/05/20 14:38:57;;;;;;;;;;;13.70;91.20;;;;;;5075360;28;20259;-67
2021/05/20 14:41:23;;;;;;;;;;;13.60;91.50;;;;;;5075548;28;19908;-69